createdAt,value
2022-10-01T00:01:00.321Z,99.90
2022-10-01T00:03:29.544Z,99.90
2022-10-01T00:06:12.133Z,99.90
2022-10-01T00:08:41.040Z,99.90
2022-10-01T00:11:14.201Z,99.90
2022-10-01T00:13:46.229Z,99.90
2022-10-01T00:16:16.313Z,99.90
2022-10-01T00:18:45.619Z,99.90
2022-10-01T00:21:16.581Z,99.90
2022-10-01T00:23:43.478Z,99.90
2022-10-01T00:26:14.934Z,99.90
2022-10-01T00:28:43.524Z,99.90
2022-10-01T00:31:10.604Z,99.90
2022-10-01T00:33:38.661Z,99.90
2022-10-01T00:36:07.102Z,99.90
2022-10-01T00:38:34.483Z,99.90
2022-10-01T00:41:02.297Z,99.90
2022-10-01T00:43:31.829Z,99.90
2022-10-01T00:46:05.843Z,99.90
2022-10-01T00:48:39.691Z,99.90
2022-10-01T00:51:06.591Z,99.90
2022-10-01T00:53:33.735Z,99.90
2022-10-01T00:56:00.834Z,99.90
2022-10-01T00:58:27.718Z,99.90
2022-10-01T01:00:56.157Z,99.90
2022-10-01T01:03:23.368Z,99.90
2022-10-01T01:05:50.249Z,99.90
2022-10-01T01:08:17.888Z,99.90
2022-10-01T01:10:51.512Z,99.90
2022-10-01T01:13:24.811Z,99.90
2022-10-01T01:16:07.969Z,99.90
2022-10-01T01:18:43.120Z,99.90
2022-10-01T01:21:30.161Z,99.90
2022-10-01T01:24:15.319Z,99.90
2022-10-01T01:27:00.928Z,99.90
2022-10-01T01:29:38.549Z,99.90
2022-10-01T01:32:14.816Z,99.90
2022-10-01T01:34:45.365Z,99.90
2022-10-01T01:37:17.505Z,99.90
2022-10-01T01:39:48.955Z,99.90
2022-10-01T01:42:22.229Z,99.90
2022-10-01T01:44:51.361Z,99.90
2022-10-01T01:47:21.897Z,99.90
2022-10-01T01:49:50.964Z,99.90
2022-10-01T01:52:18.098Z,99.90
2022-10-01T01:54:49.768Z,99.90
2022-10-01T01:57:18.457Z,99.90
2022-10-01T01:59:46.559Z,99.90
2022-10-01T02:02:25.172Z,99.90
2022-10-01T02:05:00.295Z,99.90
2022-10-01T02:07:36.613Z,99.90
2022-10-01T02:10:10.284Z,99.90
2022-10-01T02:12:55.627Z,99.90
2022-10-01T02:15:36.057Z,99.90
2022-10-01T02:18:22.322Z,99.90
2022-10-01T02:21:09.928Z,99.90
2022-10-01T02:23:43.993Z,99.90
2022-10-01T02:26:16.299Z,99.90
2022-10-01T02:28:44.442Z,99.90
2022-10-01T02:31:12.782Z,99.90
2022-10-01T02:33:41.775Z,99.90
2022-10-01T02:36:11.234Z,99.90
2022-10-01T02:38:40.542Z,99.90
2022-10-01T02:41:11.606Z,99.90
2022-10-01T02:44:01.324Z,99.90
2022-10-01T02:46:38.028Z,99.90
2022-10-01T02:49:05.618Z,99.90
2022-10-01T02:51:48.315Z,99.90
2022-10-01T02:54:28.983Z,99.90
2022-10-01T02:57:15.872Z,99.90
2022-10-01T02:59:42.834Z,99.90
2022-10-01T03:02:10.037Z,99.90
2022-10-01T03:04:36.857Z,99.90
2022-10-01T03:07:04.459Z,99.90
2022-10-01T03:09:31.972Z,99.90
2022-10-01T03:12:00.230Z,99.90
2022-10-01T03:14:28.329Z,99.90
2022-10-01T03:16:55.074Z,99.90
2022-10-01T03:19:21.988Z,99.90
2022-10-01T03:21:51.797Z,99.90
2022-10-01T03:24:18.574Z,99.90
2022-10-01T03:26:45.993Z,99.90
2022-10-01T03:29:15.712Z,99.90
2022-10-01T03:31:42.442Z,99.90
2022-10-01T03:34:09.263Z,99.90
2022-10-01T03:36:35.936Z,99.90
2022-10-01T03:39:02.696Z,99.90
2022-10-01T03:41:29.467Z,99.90
2022-10-01T03:44:00.363Z,99.90
2022-10-01T03:46:27.495Z,99.90
2022-10-01T03:48:55.769Z,99.90
2022-10-01T03:51:22.486Z,99.90
2022-10-01T03:53:49.207Z,99.90
2022-10-01T03:56:16.686Z,99.90
2022-10-01T03:58:43.333Z,99.90
2022-10-01T04:01:10.072Z,99.90
2022-10-01T04:03:36.742Z,99.90
2022-10-01T04:06:03.532Z,99.90
2022-10-01T04:08:30.209Z,99.90
2022-10-01T04:10:56.954Z,99.90
2022-10-01T04:13:23.804Z,99.90
2022-10-01T04:15:50.605Z,99.90
2022-10-01T04:18:18.926Z,99.90
2022-10-01T04:20:45.669Z,99.90
2022-10-01T04:23:12.508Z,99.90
2022-10-01T04:25:39.161Z,99.90
2022-10-01T04:28:07.642Z,99.90
2022-10-01T04:30:40.260Z,99.90
2022-10-01T04:33:07.749Z,99.90
2022-10-01T04:35:34.932Z,99.90
2022-10-01T04:38:07.543Z,99.90
2022-10-01T04:40:36.583Z,99.90
2022-10-01T04:43:04.808Z,99.90
2022-10-01T04:45:34.021Z,99.90
2022-10-01T04:48:00.894Z,99.90
2022-10-01T04:50:27.883Z,99.90
2022-10-01T04:52:55.291Z,99.90
2022-10-01T04:55:23.789Z,99.90
2022-10-01T04:57:50.834Z,99.90
2022-10-01T05:00:20.629Z,99.90
2022-10-01T05:02:49.181Z,99.90
2022-10-01T05:05:17.382Z,99.90
2022-10-01T05:07:44.712Z,99.90
2022-10-01T05:10:18.002Z,99.90
2022-10-01T05:12:45.589Z,99.90
2022-10-01T05:15:13.077Z,99.90
2022-10-01T05:17:39.777Z,99.90
2022-10-01T05:20:08.478Z,99.90
2022-10-01T05:22:35.132Z,99.90
2022-10-01T05:25:02.179Z,99.90
2022-10-01T05:27:30.877Z,99.90
2022-10-01T05:29:57.572Z,99.90
2022-10-01T05:32:24.570Z,99.90
2022-10-01T05:34:53.650Z,99.90
2022-10-01T05:37:20.928Z,99.90
2022-10-01T05:39:47.866Z,99.90
2022-10-01T05:42:14.553Z,99.90
2022-10-01T05:44:46.088Z,99.90
2022-10-01T05:47:14.625Z,99.90
2022-10-01T05:49:44.549Z,99.90
2022-10-01T05:52:12.415Z,99.90
2022-10-01T05:54:39.177Z,99.90
2022-10-01T05:57:07.975Z,99.90
2022-10-01T05:59:35.411Z,99.90
2022-10-01T06:02:03.879Z,99.90
2022-10-01T06:04:30.711Z,99.90
2022-10-01T06:06:57.401Z,99.90
2022-10-01T06:09:24.089Z,99.90
2022-10-01T06:11:50.746Z,99.90
2022-10-01T06:14:17.472Z,99.90
2022-10-01T06:16:44.654Z,99.90
2022-10-01T06:19:11.394Z,99.90
2022-10-01T06:21:38.182Z,99.90
2022-10-01T06:24:05.220Z,99.90
2022-10-01T06:26:32.037Z,99.90
2022-10-01T06:28:58.796Z,99.90
2022-10-01T06:31:25.535Z,99.90
2022-10-01T06:33:52.271Z,99.90
2022-10-01T06:36:19.012Z,99.90
2022-10-01T06:38:49.361Z,99.90
2022-10-01T06:41:16.358Z,99.90
2022-10-01T06:43:43.047Z,99.90
2022-10-01T06:46:11.871Z,99.90
2022-10-01T06:48:38.592Z,99.90
2022-10-01T06:51:05.821Z,99.90
2022-10-01T06:53:32.628Z,99.90
2022-10-01T06:56:05.569Z,99.90
2022-10-01T06:58:32.408Z,99.90
2022-10-01T07:01:03.775Z,99.90
2022-10-01T07:03:31.493Z,99.90
2022-10-01T07:06:05.375Z,99.90
2022-10-01T07:08:33.122Z,99.90
2022-10-01T07:11:03.858Z,99.90
2022-10-01T07:13:30.800Z,99.90
2022-10-01T07:15:57.555Z,99.90
2022-10-01T07:18:24.510Z,99.90
2022-10-01T07:20:51.701Z,99.90
2022-10-01T07:23:18.540Z,99.90
2022-10-01T07:25:45.638Z,99.90
2022-10-01T07:28:17.904Z,99.90
2022-10-01T07:31:01.476Z,99.90
2022-10-01T07:33:31.348Z,99.90
2022-10-01T07:36:02.243Z,99.90
2022-10-01T07:38:29.347Z,99.90
2022-10-01T07:40:56.134Z,99.90
2022-10-01T07:43:23.143Z,99.90
2022-10-01T07:45:50.194Z,99.90
2022-10-01T07:48:17.141Z,99.90
2022-10-01T07:50:48.157Z,99.90
2022-10-01T07:53:15.096Z,99.90
2022-10-01T07:55:42.162Z,99.90
2022-10-01T07:58:09.730Z,99.90
2022-10-01T08:00:36.465Z,99.90
2022-10-01T08:03:05.949Z,99.90
2022-10-01T08:05:34.838Z,99.90
2022-10-01T08:08:07.089Z,99.90
2022-10-01T08:10:36.413Z,99.90
2022-10-01T08:13:08.279Z,99.90
2022-10-01T08:15:35.773Z,99.90
2022-10-01T08:18:04.340Z,99.90
2022-10-01T08:20:31.881Z,99.90
2022-10-01T08:23:06.553Z,99.90
2022-10-01T08:25:34.388Z,99.90
2022-10-01T08:28:01.484Z,99.90
2022-10-01T08:30:29.392Z,99.90
2022-10-01T08:32:57.660Z,99.90
2022-10-01T08:35:25.312Z,99.90
2022-10-01T08:37:52.659Z,99.90
2022-10-01T08:40:21.604Z,99.90
2022-10-01T08:43:06.312Z,99.90
2022-10-01T08:45:35.792Z,99.90
2022-10-01T08:48:12.920Z,99.90
2022-10-01T08:51:03.167Z,99.90
2022-10-01T08:53:53.791Z,99.90
2022-10-01T08:56:34.252Z,98.10
2022-10-01T08:59:10.193Z,91.00
2022-10-01T09:01:37.334Z,91.70
2022-10-01T09:04:05.774Z,92.60
2022-10-01T09:06:32.478Z,91.50
2022-10-01T09:09:17.832Z,90.10
2022-10-01T09:11:47.724Z,88.80
2022-10-01T09:14:34.190Z,91.60
2022-10-01T09:17:06.515Z,90.90
2022-10-01T09:19:47.776Z,93.00
2022-10-01T09:22:32.870Z,92.40
2022-10-01T09:25:21.489Z,92.50
2022-10-01T09:27:48.671Z,91.90
2022-10-01T09:30:24.778Z,87.00
2022-10-01T09:33:14.313Z,84.30
2022-10-01T09:35:49.982Z,78.80
2022-10-01T09:38:38.453Z,76.30
2022-10-01T09:41:06.188Z,77.20
2022-10-01T09:43:34.977Z,81.20
2022-10-01T09:46:03.698Z,83.00
2022-10-01T09:49:11.296Z,81.50
2022-10-01T09:51:45.576Z,77.00
2022-10-01T09:54:22.019Z,75.20
2022-10-01T09:57:01.625Z,72.70
2022-10-01T09:59:36.309Z,69.80
2022-10-01T10:02:12.608Z,68.00
2022-10-01T10:04:39.398Z,70.90
2022-10-01T10:07:06.251Z,71.50
2022-10-01T10:09:35.720Z,72.00
2022-10-01T10:12:03.241Z,72.00
2022-10-01T10:14:34.501Z,72.60
2022-10-01T10:17:16.770Z,70.40
2022-10-01T10:19:52.380Z,67.90
2022-10-01T10:22:25.877Z,66.00
2022-10-01T10:24:59.006Z,67.80
2022-10-01T10:27:27.746Z,66.10
2022-10-01T10:30:07.025Z,65.20
2022-10-01T10:32:33.771Z,62.20
2022-10-01T10:35:05.204Z,63.20
2022-10-01T10:37:37.133Z,65.00
2022-10-01T10:40:07.941Z,64.90
2022-10-01T10:42:38.744Z,66.00
2022-10-01T10:45:17.081Z,65.50
2022-10-01T10:47:52.661Z,67.20
2022-10-01T10:50:40.397Z,67.00
2022-10-01T10:53:22.682Z,64.70
2022-10-01T10:56:01.676Z,63.80
2022-10-01T10:58:33.844Z,63.30
2022-10-01T11:01:16.282Z,60.50
2022-10-01T11:03:48.362Z,59.00
2022-10-01T11:06:18.593Z,58.40
2022-10-01T11:08:57.105Z,58.20
2022-10-01T11:11:43.834Z,60.00
2022-10-01T11:14:39.190Z,58.30
2022-10-01T11:17:21.721Z,59.30
2022-10-01T11:20:20.973Z,60.80
2022-10-01T11:23:15.728Z,60.40
2022-10-01T11:26:10.716Z,57.80
2022-10-01T11:28:55.986Z,55.50
2022-10-01T11:31:41.604Z,57.30
2022-10-01T11:34:17.593Z,57.20
2022-10-01T11:37:13.174Z,56.70
2022-10-01T11:39:44.465Z,56.40
2022-10-01T11:42:22.268Z,57.10
2022-10-01T11:45:11.360Z,56.90
2022-10-01T11:47:55.725Z,58.40
2022-10-01T11:50:27.956Z,57.80
2022-10-01T11:53:06.239Z,58.30
2022-10-01T11:56:01.534Z,59.40
2022-10-01T11:58:54.080Z,58.30
2022-10-01T12:01:31.586Z,54.80
2022-10-01T12:04:03.960Z,53.00
2022-10-01T12:06:37.039Z,53.80
2022-10-01T12:09:21.082Z,51.80
2022-10-01T12:12:06.770Z,52.50
2022-10-01T12:14:54.159Z,52.20
2022-10-01T12:17:51.446Z,53.90
2022-10-01T12:20:41.380Z,55.30
2022-10-01T12:23:17.882Z,54.90
2022-10-01T12:26:05.256Z,54.50
2022-10-01T12:29:00.737Z,53.20
2022-10-01T12:32:00.011Z,53.30
2022-10-01T12:35:02.455Z,50.50
2022-10-01T12:37:50.645Z,50.80
2022-10-01T12:40:38.731Z,51.40
2022-10-01T12:43:37.365Z,50.30
2022-10-01T12:46:33.895Z,48.90
2022-10-01T12:49:13.075Z,49.40
2022-10-01T12:51:53.097Z,49.40
2022-10-01T12:54:44.083Z,50.10
2022-10-01T12:57:36.741Z,51.50
2022-10-01T13:00:18.824Z,50.60
2022-10-01T13:03:10.427Z,51.20
2022-10-01T13:05:54.106Z,52.10
2022-10-01T13:08:39.672Z,52.80
2022-10-01T13:11:20.574Z,53.00
2022-10-01T13:13:52.449Z,51.90
2022-10-01T13:16:49.096Z,51.40
2022-10-01T13:19:27.004Z,50.40
2022-10-01T13:22:07.888Z,49.30
2022-10-01T13:25:00.956Z,49.40
2022-10-01T13:27:33.917Z,50.50
2022-10-01T13:30:07.708Z,49.50
2022-10-01T13:33:00.909Z,49.50
2022-10-01T13:35:39.347Z,49.20
2022-10-01T13:38:17.496Z,49.60
2022-10-01T13:40:45.023Z,50.80
2022-10-01T13:43:21.746Z,51.40
2022-10-01T13:45:55.008Z,50.70
2022-10-01T13:48:29.502Z,50.50
2022-10-01T13:50:58.296Z,50.50
2022-10-01T13:53:27.316Z,50.50
2022-10-01T13:55:54.766Z,50.70
2022-10-01T13:58:24.987Z,50.90
2022-10-01T14:00:54.420Z,51.10
2022-10-01T14:03:39.450Z,50.90
2022-10-01T14:06:14.928Z,51.30
2022-10-01T14:08:47.821Z,52.30
2022-10-01T14:11:36.189Z,53.40
2022-10-01T14:14:31.616Z,53.20
2022-10-01T14:17:00.326Z,53.30
2022-10-01T14:19:28.269Z,52.00
2022-10-01T14:22:08.106Z,51.70
2022-10-01T14:25:12.601Z,51.50
2022-10-01T14:28:04.334Z,52.10
2022-10-01T14:30:56.941Z,51.20
2022-10-01T14:33:57.092Z,50.60
2022-10-01T14:36:41.852Z,51.10
2022-10-01T14:39:13.833Z,51.60
2022-10-01T14:41:40.922Z,52.30
2022-10-01T14:44:25.797Z,51.50
2022-10-01T14:46:56.211Z,51.30
2022-10-01T14:49:27.135Z,51.30
2022-10-01T14:52:01.950Z,51.80
2022-10-01T14:54:31.554Z,51.50
2022-10-01T14:56:59.042Z,51.10
2022-10-01T14:59:29.940Z,50.30
2022-10-01T15:02:02.384Z,49.40
2022-10-01T15:04:29.306Z,49.00
2022-10-01T15:07:04.775Z,49.20
2022-10-01T15:09:33.956Z,49.70
2022-10-01T15:12:01.197Z,50.50
2022-10-01T15:14:28.173Z,50.90
2022-10-01T15:16:55.062Z,51.10
2022-10-01T15:19:23.114Z,51.40
2022-10-01T15:21:56.516Z,51.40
2022-10-01T15:24:36.358Z,52.20
2022-10-01T15:27:03.750Z,52.80
2022-10-01T15:29:30.439Z,53.40
2022-10-01T15:31:58.249Z,54.40
2022-10-01T15:34:26.520Z,54.90
2022-10-01T15:36:54.681Z,51.30
2022-10-01T15:39:40.654Z,47.50
2022-10-01T15:42:31.511Z,47.10
2022-10-01T15:45:07.428Z,44.70
2022-10-01T15:47:49.358Z,44.40
2022-10-01T15:50:18.084Z,47.40
2022-10-01T15:52:51.489Z,46.80
2022-10-01T15:55:27.476Z,45.10
2022-10-01T15:58:15.262Z,46.20
2022-10-01T16:00:56.743Z,48.00
2022-10-01T16:03:27.410Z,46.70
2022-10-01T16:05:55.260Z,46.50
2022-10-01T16:08:25.493Z,47.10
2022-10-01T16:11:32.096Z,48.10
2022-10-01T16:14:20.081Z,49.50
2022-10-01T16:16:47.033Z,50.80
2022-10-01T16:19:31.302Z,51.70
2022-10-01T16:22:14.639Z,52.80
2022-10-01T16:24:52.724Z,53.40
2022-10-01T16:27:48.434Z,53.30
2022-10-01T16:30:27.124Z,53.40
2022-10-01T16:32:59.423Z,53.60
2022-10-01T16:35:32.633Z,53.40
2022-10-01T16:37:59.564Z,53.30
2022-10-01T16:40:31.780Z,54.20
2022-10-01T16:43:00.401Z,55.10
2022-10-01T16:45:32.605Z,55.90
2022-10-01T16:48:00.518Z,57.10
2022-10-01T16:50:27.209Z,58.50
2022-10-01T16:52:55.749Z,59.50
2022-10-01T16:55:25.258Z,60.50
2022-10-01T16:57:55.175Z,61.90
2022-10-01T17:00:24.490Z,63.00
2022-10-01T17:02:51.808Z,63.90
2022-10-01T17:05:25.422Z,64.60
2022-10-01T17:07:53.706Z,65.80
2022-10-01T17:10:22.518Z,66.90
2022-10-01T17:12:49.800Z,67.80
2022-10-01T17:15:26.373Z,68.50
2022-10-01T17:17:55.675Z,69.60
2022-10-01T17:20:23.796Z,70.00
2022-10-01T17:22:51.692Z,70.50
2022-10-01T17:25:22.260Z,70.70
2022-10-01T17:27:49.356Z,71.90
2022-10-01T17:30:16.588Z,73.00
2022-10-01T17:32:43.723Z,73.40
2022-10-01T17:35:11.689Z,74.00
2022-10-01T17:37:39.007Z,74.60
2022-10-01T17:40:06.758Z,76.60
2022-10-01T17:42:35.469Z,77.50
2022-10-01T17:45:04.373Z,77.80
2022-10-01T17:47:31.271Z,77.30
2022-10-01T17:50:00.130Z,78.50
2022-10-01T17:52:27.271Z,78.50
2022-10-01T17:54:53.939Z,78.40
2022-10-01T17:57:20.905Z,80.70
2022-10-01T17:59:47.627Z,80.70
2022-10-01T18:02:39.714Z,82.10
2022-10-01T18:05:04.058Z,83.70
2022-10-01T18:07:30.748Z,84.10
2022-10-01T18:09:57.501Z,83.50
2022-10-01T18:12:24.148Z,83.30
2022-10-01T18:14:50.921Z,83.20
2022-10-01T18:17:18.099Z,83.60
2022-10-01T18:19:53.711Z,85.10
2022-10-01T18:22:22.199Z,85.20
2022-10-01T18:24:49.119Z,85.90
2022-10-01T18:27:16.244Z,86.40
2022-10-01T18:29:43.203Z,87.10
2022-10-01T18:32:26.166Z,88.10
2022-10-01T18:34:59.309Z,89.20
2022-10-01T18:37:47.887Z,90.40
2022-10-01T18:40:21.351Z,90.90
2022-10-01T18:43:15.917Z,91.20
2022-10-01T18:46:17.892Z,91.20
2022-10-01T18:48:50.708Z,91.20
2022-10-01T18:51:51.952Z,91.40
2022-10-01T18:54:27.449Z,91.60
2022-10-01T18:57:05.977Z,91.20
2022-10-01T18:59:46.630Z,91.20
2022-10-01T19:02:33.290Z,91.00
2022-10-01T19:05:37.242Z,90.50
2022-10-01T19:08:20.869Z,90.10
2022-10-01T19:11:18.095Z,89.20
2022-10-01T19:14:19.947Z,88.50
2022-10-01T19:17:09.152Z,88.40
2022-10-01T19:20:13.953Z,88.40
2022-10-01T19:23:04.789Z,88.90
2022-10-01T19:25:54.697Z,89.60
2022-10-01T19:28:39.627Z,90.20
2022-10-01T19:31:22.079Z,90.70
2022-10-01T19:34:28.483Z,91.10
2022-10-01T19:37:02.150Z,91.50
2022-10-01T19:39:36.101Z,91.80
2022-10-01T19:42:18.714Z,92.10
2022-10-01T19:45:11.959Z,92.60
2022-10-01T19:47:50.737Z,92.90
2022-10-01T19:50:25.844Z,93.40
2022-10-01T19:52:55.589Z,93.50
2022-10-01T19:55:24.738Z,93.60
2022-10-01T19:57:52.773Z,94.10
2022-10-01T20:00:21.820Z,94.40
2022-10-01T20:03:06.201Z,94.70
2022-10-01T20:05:58.581Z,95.20
2022-10-01T20:08:36.289Z,95.60
2022-10-01T20:11:35.792Z,95.60
2022-10-01T20:14:36.156Z,95.80
2022-10-01T20:17:11.801Z,95.80
2022-10-01T20:19:44.146Z,96.10
2022-10-01T20:23:06.427Z,96.20
2022-10-01T20:25:44.756Z,96.60
2022-10-01T20:28:33.513Z,96.90
2022-10-01T20:31:14.150Z,97.50
2022-10-01T20:33:51.663Z,97.90
2022-10-01T20:36:18.321Z,98.00
2022-10-01T20:39:26.931Z,98.10
2022-10-01T20:41:54.944Z,98.40
2022-10-01T20:44:27.239Z,98.50
2022-10-01T20:47:00.914Z,98.50
2022-10-01T20:49:43.526Z,98.90
2022-10-01T20:52:21.957Z,99.10
2022-10-01T20:55:28.894Z,99.40
2022-10-01T20:58:33.078Z,99.90
2022-10-01T21:01:08.014Z,99.90
2022-10-01T21:03:39.358Z,99.90
2022-10-01T21:06:15.784Z,99.90
2022-10-01T21:09:03.014Z,99.90
2022-10-01T21:11:47.848Z,99.90
2022-10-01T21:14:25.975Z,99.90
2022-10-01T21:17:08.041Z,99.90
2022-10-01T21:20:16.715Z,99.90
2022-10-01T21:23:05.118Z,99.90
2022-10-01T21:26:02.020Z,99.90
2022-10-01T21:28:44.080Z,99.90
2022-10-01T21:31:29.359Z,99.90
2022-10-01T21:34:12.959Z,99.90
2022-10-01T21:36:55.724Z,99.90
2022-10-01T21:39:36.547Z,99.90
2022-10-01T21:42:20.304Z,99.90
2022-10-01T21:45:16.516Z,99.90
2022-10-01T21:48:01.901Z,99.90
2022-10-01T21:50:44.428Z,99.90
2022-10-01T21:53:29.016Z,99.90
2022-10-01T21:56:20.585Z,99.90
2022-10-01T21:58:53.392Z,99.90
2022-10-01T22:01:47.896Z,99.90
2022-10-01T22:04:32.071Z,99.90
2022-10-01T22:07:17.442Z,99.90
2022-10-01T22:10:21.823Z,99.90
2022-10-01T22:12:51.848Z,99.90
2022-10-01T22:15:27.409Z,99.90
2022-10-01T22:17:55.104Z,99.90
2022-10-01T22:20:28.041Z,99.90
2022-10-01T22:22:58.628Z,99.90
2022-10-01T22:25:26.832Z,99.90
2022-10-01T22:28:07.251Z,99.90
2022-10-01T22:30:38.751Z,99.90
2022-10-01T22:33:29.396Z,99.90
2022-10-01T22:35:59.125Z,99.90
2022-10-01T22:38:56.793Z,99.90
2022-10-01T22:41:46.301Z,99.90
2022-10-01T22:44:16.178Z,99.90
2022-10-01T22:46:48.737Z,99.90
2022-10-01T22:49:58.521Z,99.90
2022-10-01T22:52:36.567Z,99.90
2022-10-01T22:55:37.133Z,99.90
2022-10-01T22:58:33.302Z,99.90
2022-10-01T23:01:15.324Z,99.90
2022-10-01T23:04:08.097Z,99.90
2022-10-01T23:06:40.716Z,99.90
2022-10-01T23:09:18.097Z,99.90
2022-10-01T23:12:02.935Z,99.90
2022-10-01T23:14:38.382Z,99.90
2022-10-01T23:17:36.236Z,99.90
2022-10-01T23:20:16.726Z,99.90
2022-10-01T23:23:02.171Z,99.90
2022-10-01T23:25:28.813Z,99.90
2022-10-01T23:28:30.180Z,99.90
2022-10-01T23:31:21.597Z,99.90
2022-10-01T23:34:28.143Z,99.90
2022-10-01T23:37:27.950Z,99.90
2022-10-01T23:40:14.728Z,99.90
2022-10-01T23:43:06.634Z,99.90
2022-10-01T23:46:04.676Z,99.90
2022-10-01T23:48:42.333Z,99.90
2022-10-01T23:51:34.394Z,99.90
2022-10-01T23:54:26.468Z,99.90
2022-10-01T23:57:07.626Z,99.90
2022-10-01T23:59:37.429Z,99.90
